1C5 weather

Bolingbrook's Clow International Airport
Bolingbrook, Illinois, United States

Public forecast

Using degrees Fahrenheit for public forecast. Weather courtesy of forecast.io.

METAR (pilot weather report)

Closest report is Lewis University Airport, 5.5 nm (10.2 km) SSE. Retrieved 2019/04/20 04:15 UTC (0 seconds ago):

KLOT 200415Z AUTO 03015G22KT 10SM CLR 07/M04 A2984 RMK AO2 T00651045

TAF (pilot weather forecast)

Forecast is more than 12 hours old.

Closest forecast is Dupage Airport, 13.8 nm (25.5 km) NNW. Retrieved 2019/04/19 00:24 UTC (1 day ago):

TAF KDPA 192321Z 2000/2024 02022G32KT P6SM SKC FM200100 01016G25KT P6SM SKC FM200500 01012G18KT P6SM SKC WS010/03040KT FM201400 01016G26KT P6SM SKC FM202100 02013G19KT P6SM SKC